sensor_id;sensor_type;location;lat;lon;timestamp;P1;durP1;ratioP1;P2;durP2;ratioP2
72639;SDS011;60683;51.730;8.762;2022-10-03T00:01:21;8.77;;;1.92;;
72639;SDS011;60683;51.730;8.762;2022-10-03T00:04:08;8.43;;;2.00;;
72639;SDS011;60683;51.730;8.762;2022-10-03T00:06:45;9.63;;;1.80;;
72639;SDS011;60683;51.730;8.762;2022-10-03T00:09:24;10.43;;;2.03;;
72639;SDS011;60683;51.730;8.762;2022-10-03T00:12:02;10.90;;;2.10;;
72639;SDS011;60683;51.730;8.762;2022-10-03T00:14:39;8.57;;;1.95;;
72639;SDS011;60683;51.730;8.762;2022-10-03T00:17:12;6.38;;;2.17;;
72639;SDS011;60683;51.730;8.762;2022-10-03T00:19:43;10.38;;;2.92;;
72639;SDS011;60683;51.730;8.762;2022-10-03T00:22:21;4.38;;;2.05;;
72639;SDS011;60683;51.730;8.762;2022-10-03T00:24:57;9.32;;;2.30;;
72639;SDS011;60683;51.730;8.762;2022-10-03T00:27:33;5.45;;;1.90;;
72639;SDS011;60683;51.730;8.762;2022-10-03T00:30:15;12.50;;;2.58;;
72639;SDS011;60683;51.730;8.762;2022-10-03T00:32:52;8.38;;;2.53;;
72639;SDS011;60683;51.730;8.762;2022-10-03T00:35:31;8.85;;;2.25;;
72639;SDS011;60683;51.730;8.762;2022-10-03T00:38:09;7.75;;;2.15;;
72639;SDS011;60683;51.730;8.762;2022-10-03T00:46:49;14.07;;;2.47;;
72639;SDS011;60683;51.730;8.762;2022-10-03T00:52:21;9.25;;;2.28;;
72639;SDS011;60683;51.730;8.762;2022-10-03T00:55:00;11.77;;;2.70;;
72639;SDS011;60683;51.730;8.762;2022-10-03T00:57:36;8.45;;;2.70;;
72639;SDS011;60683;51.730;8.762;2022-10-03T01:00:14;6.72;;;2.83;;
72639;SDS011;60683;51.730;8.762;2022-10-03T01:05:40;12.45;;;2.85;;
72639;SDS011;60683;51.730;8.762;2022-10-03T01:08:36;13.10;;;3.00;;
72639;SDS011;60683;51.730;8.762;2022-10-03T01:11:20;9.25;;;2.60;;
72639;SDS011;60683;51.730;8.762;2022-10-03T01:13:55;9.70;;;2.35;;
72639;SDS011;60683;51.730;8.762;2022-10-03T01:16:31;10.32;;;2.67;;
72639;SDS011;60683;51.730;8.762;2022-10-03T01:19:06;9.65;;;2.60;;
72639;SDS011;60683;51.730;8.762;2022-10-03T01:21:47;7.95;;;2.15;;
72639;SDS011;60683;51.730;8.762;2022-10-03T01:24:33;10.25;;;2.15;;
72639;SDS011;60683;51.730;8.762;2022-10-03T01:27:17;9.30;;;2.40;;
72639;SDS011;60683;51.730;8.762;2022-10-03T01:29:53;8.73;;;2.22;;
72639;SDS011;60683;51.730;8.762;2022-10-03T01:32:43;9.52;;;2.28;;
72639;SDS011;60683;51.730;8.762;2022-10-03T01:35:17;6.63;;;2.20;;
72639;SDS011;60683;51.730;8.762;2022-10-03T01:37:53;10.63;;;2.55;;
72639;SDS011;60683;51.730;8.762;2022-10-03T01:40:26;9.90;;;2.72;;
72639;SDS011;60683;51.730;8.762;2022-10-03T01:43:05;8.75;;;2.60;;
72639;SDS011;60683;51.730;8.762;2022-10-03T01:45:40;9.05;;;2.17;;
72639;SDS011;60683;51.730;8.762;2022-10-03T01:48:15;9.60;;;2.40;;
72639;SDS011;60683;51.730;8.762;2022-10-03T01:50:47;10.48;;;2.63;;
72639;SDS011;60683;51.730;8.762;2022-10-03T01:53:22;7.60;;;2.25;;
72639;SDS011;60683;51.730;8.762;2022-10-03T01:55:54;12.68;;;2.40;;
72639;SDS011;60683;51.730;8.762;2022-10-03T01:58:26;11.77;;;2.58;;
72639;SDS011;60683;51.730;8.762;2022-10-03T02:00:58;11.15;;;2.50;;
72639;SDS011;60683;51.730;8.762;2022-10-03T02:06:02;9.13;;;2.08;;
72639;SDS011;60683;51.730;8.762;2022-10-03T02:08:39;7.78;;;2.10;;
72639;SDS011;60683;51.730;8.762;2022-10-03T02:11:20;7.60;;;2.90;;
72639;SDS011;60683;51.730;8.762;2022-10-03T02:13:54;5.55;;;2.20;;
72639;SDS011;60683;51.730;8.762;2022-10-03T02:16:29;6.95;;;2.95;;
72639;SDS011;60683;51.730;8.762;2022-10-03T02:19:02;9.35;;;3.10;;
72639;SDS011;60683;51.730;8.762;2022-10-03T02:21:33;12.30;;;2.65;;
72639;SDS011;60683;51.730;8.762;2022-10-03T02:24:17;10.50;;;2.58;;
72639;SDS011;60683;51.730;8.762;2022-10-03T02:32:56;6.32;;;2.20;;
72639;SDS011;60683;51.730;8.762;2022-10-03T02:35:55;13.45;;;2.63;;
72639;SDS011;60683;51.730;8.762;2022-10-03T02:38:51;11.68;;;2.78;;
72639;SDS011;60683;51.730;8.762;2022-10-03T02:41:43;7.05;;;3.05;;
72639;SDS011;60683;51.730;8.762;2022-10-03T02:44:37;8.68;;;3.42;;
72639;SDS011;60683;51.730;8.762;2022-10-03T02:47:28;10.90;;;3.50;;
72639;SDS011;60683;51.730;8.762;2022-10-03T02:50:25;10.43;;;2.80;;
72639;SDS011;60683;51.730;8.762;2022-10-03T02:59:39;12.55;;;3.28;;
72639;SDS011;60683;51.730;8.762;2022-10-03T03:08:52;10.15;;;2.92;;
72639;SDS011;60683;51.730;8.762;2022-10-03T03:11:31;12.20;;;3.42;;
72639;SDS011;60683;51.730;8.762;2022-10-03T03:14:16;17.52;;;3.58;;
72639;SDS011;60683;51.730;8.762;2022-10-03T03:17:19;9.88;;;3.45;;
72639;SDS011;60683;51.730;8.762;2022-10-03T03:22:47;10.07;;;3.38;;
72639;SDS011;60683;51.730;8.762;2022-10-03T03:28:17;10.48;;;3.38;;
72639;SDS011;60683;51.730;8.762;2022-10-03T03:30:54;13.93;;;3.55;;
72639;SDS011;60683;51.730;8.762;2022-10-03T03:33:30;10.05;;;3.50;;
72639;SDS011;60683;51.730;8.762;2022-10-03T03:36:06;9.40;;;3.67;;
72639;SDS011;60683;51.730;8.762;2022-10-03T03:38:39;13.00;;;3.85;;
72639;SDS011;60683;51.730;8.762;2022-10-03T03:41:20;13.95;;;4.03;;
72639;SDS011;60683;51.730;8.762;2022-10-03T03:44:01;17.92;;;3.47;;
72639;SDS011;60683;51.730;8.762;2022-10-03T03:46:41;11.73;;;4.03;;
72639;SDS011;60683;51.730;8.762;2022-10-03T03:49:17;9.05;;;3.72;;
72639;SDS011;60683;51.730;8.762;2022-10-03T03:52:00;15.18;;;3.88;;
72639;SDS011;60683;51.730;8.762;2022-10-03T03:54:53;11.60;;;4.57;;
72639;SDS011;60683;51.730;8.762;2022-10-03T03:57:36;14.10;;;4.65;;
72639;SDS011;60683;51.730;8.762;2022-10-03T04:00:12;14.23;;;4.53;;
72639;SDS011;60683;51.730;8.762;2022-10-03T04:02:44;11.23;;;4.30;;
72639;SDS011;60683;51.730;8.762;2022-10-03T04:05:22;10.75;;;4.40;;
72639;SDS011;60683;51.730;8.762;2022-10-03T04:08:16;12.55;;;5.70;;
72639;SDS011;60683;51.730;8.762;2022-10-03T04:10:57;10.85;;;4.22;;
72639;SDS011;60683;51.730;8.762;2022-10-03T04:13:37;11.82;;;5.03;;
72639;SDS011;60683;51.730;8.762;2022-10-03T04:16:20;18.52;;;5.38;;
72639;SDS011;60683;51.730;8.762;2022-10-03T04:19:28;10.00;;;3.67;;
72639;SDS011;60683;51.730;8.762;2022-10-03T04:22:06;11.10;;;4.07;;
72639;SDS011;60683;51.730;8.762;2022-10-03T04:27:44;18.08;;;4.97;;
72639;SDS011;60683;51.730;8.762;2022-10-03T04:30:33;11.43;;;5.05;;
72639;SDS011;60683;51.730;8.762;2022-10-03T04:33:10;15.18;;;5.07;;
72639;SDS011;60683;51.730;8.762;2022-10-03T04:35:51;13.65;;;4.57;;
72639;SDS011;60683;51.730;8.762;2022-10-03T04:38:38;14.00;;;5.47;;
72639;SDS011;60683;51.730;8.762;2022-10-03T04:41:12;12.18;;;5.10;;
72639;SDS011;60683;51.730;8.762;2022-10-03T04:43:50;12.73;;;5.32;;
72639;SDS011;60683;51.730;8.762;2022-10-03T04:46:24;16.25;;;6.68;;
72639;SDS011;60683;51.730;8.762;2022-10-03T04:48:57;14.95;;;6.32;;
72639;SDS011;60683;51.730;8.762;2022-10-03T04:51:41;18.88;;;6.85;;
72639;SDS011;60683;51.730;8.762;2022-10-03T04:54:14;18.90;;;6.35;;
72639;SDS011;60683;51.730;8.762;2022-10-03T04:56:48;12.52;;;5.13;;
72639;SDS011;60683;51.730;8.762;2022-10-03T04:59:26;19.17;;;6.53;;
72639;SDS011;60683;51.730;8.762;2022-10-03T05:01:59;19.42;;;7.05;;
72639;SDS011;60683;51.730;8.762;2022-10-03T05:04:31;14.32;;;6.05;;
72639;SDS011;60683;51.730;8.762;2022-10-03T05:07:05;17.38;;;6.50;;
72639;SDS011;60683;51.730;8.762;2022-10-03T05:09:39;18.77;;;5.78;;
72639;SDS011;60683;51.730;8.762;2022-10-03T05:12:13;25.90;;;7.47;;
72639;SDS011;60683;51.730;8.762;2022-10-03T05:14:48;21.70;;;7.45;;
72639;SDS011;60683;51.730;8.762;2022-10-03T05:17:27;18.00;;;6.50;;
72639;SDS011;60683;51.730;8.762;2022-10-03T05:20:02;18.25;;;5.93;;
72639;SDS011;60683;51.730;8.762;2022-10-03T05:22:43;17.75;;;7.45;;
72639;SDS011;60683;51.730;8.762;2022-10-03T05:25:19;17.52;;;7.07;;
72639;SDS011;60683;51.730;8.762;2022-10-03T05:27:51;15.48;;;7.30;;
72639;SDS011;60683;51.730;8.762;2022-10-03T05:30:24;16.77;;;6.28;;
72639;SDS011;60683;51.730;8.762;2022-10-03T05:33:05;16.10;;;7.25;;
72639;SDS011;60683;51.730;8.762;2022-10-03T05:35:43;18.50;;;7.30;;
72639;SDS011;60683;51.730;8.762;2022-10-03T05:38:21;21.67;;;7.53;;
72639;SDS011;60683;51.730;8.762;2022-10-03T05:41:00;18.40;;;7.18;;
72639;SDS011;60683;51.730;8.762;2022-10-03T05:43:39;20.65;;;7.25;;
72639;SDS011;60683;51.730;8.762;2022-10-03T05:46:13;18.10;;;6.65;;
72639;SDS011;60683;51.730;8.762;2022-10-03T05:48:49;16.20;;;6.85;;
72639;SDS011;60683;51.730;8.762;2022-10-03T05:51:22;21.45;;;7.55;;
72639;SDS011;60683;51.730;8.762;2022-10-03T05:57:03;18.98;;;6.88;;
72639;SDS011;60683;51.730;8.762;2022-10-03T05:59:57;19.15;;;6.93;;
72639;SDS011;60683;51.730;8.762;2022-10-03T06:05:45;18.95;;;8.57;;
72639;SDS011;60683;51.730;8.762;2022-10-03T06:11:20;16.85;;;7.55;;
72639;SDS011;60683;51.730;8.762;2022-10-03T06:14:07;18.85;;;8.18;;
72639;SDS011;60683;51.730;8.762;2022-10-03T06:16:43;18.88;;;7.90;;
72639;SDS011;60683;51.730;8.762;2022-10-03T06:19:20;20.83;;;7.07;;
72639;SDS011;60683;51.730;8.762;2022-10-03T06:27:57;19.67;;;8.05;;
72639;SDS011;60683;51.730;8.762;2022-10-03T06:30:51;11.85;;;5.65;;
72639;SDS011;60683;51.730;8.762;2022-10-03T06:33:53;17.55;;;7.97;;
72639;SDS011;60683;51.730;8.762;2022-10-03T06:36:29;20.48;;;8.10;;
72639;SDS011;60683;51.730;8.762;2022-10-03T06:42:15;21.58;;;9.07;;
72639;SDS011;60683;51.730;8.762;2022-10-03T06:44:55;21.30;;;8.30;;
72639;SDS011;60683;51.730;8.762;2022-10-03T06:47:43;16.15;;;8.32;;
72639;SDS011;60683;51.730;8.762;2022-10-03T06:50:25;22.50;;;8.98;;
72639;SDS011;60683;51.730;8.762;2022-10-03T06:53:07;21.10;;;7.78;;
72639;SDS011;60683;51.730;8.762;2022-10-03T06:56:03;21.17;;;8.18;;
72639;SDS011;60683;51.730;8.762;2022-10-03T06:58:47;18.35;;;8.40;;
72639;SDS011;60683;51.730;8.762;2022-10-03T07:04:25;18.23;;;7.95;;
72639;SDS011;60683;51.730;8.762;2022-10-03T07:07:17;24.20;;;9.32;;
72639;SDS011;60683;51.730;8.762;2022-10-03T07:10:00;25.15;;;8.65;;
72639;SDS011;60683;51.730;8.762;2022-10-03T07:12:44;22.42;;;9.35;;
72639;SDS011;60683;51.730;8.762;2022-10-03T07:15:37;20.13;;;8.40;;
72639;SDS011;60683;51.730;8.762;2022-10-03T07:18:42;21.50;;;8.80;;
72639;SDS011;60683;51.730;8.762;2022-10-03T07:21:34;21.63;;;9.32;;
72639;SDS011;60683;51.730;8.762;2022-10-03T07:24:30;19.98;;;8.13;;
72639;SDS011;60683;51.730;8.762;2022-10-03T07:27:14;20.10;;;8.55;;
72639;SDS011;60683;51.730;8.762;2022-10-03T07:30:02;17.45;;;8.32;;
72639;SDS011;60683;51.730;8.762;2022-10-03T07:32:38;25.88;;;9.25;;
72639;SDS011;60683;51.730;8.762;2022-10-03T07:38:36;24.05;;;9.82;;
72639;SDS011;60683;51.730;8.762;2022-10-03T07:45:02;23.38;;;10.00;;
72639;SDS011;60683;51.730;8.762;2022-10-03T07:50:47;23.60;;;9.70;;
72639;SDS011;60683;51.730;8.762;2022-10-03T07:53:27;23.92;;;9.73;;
72639;SDS011;60683;51.730;8.762;2022-10-03T07:56:21;27.95;;;10.35;;
72639;SDS011;60683;51.730;8.762;2022-10-03T07:59:19;25.70;;;10.30;;
72639;SDS011;60683;51.730;8.762;2022-10-03T08:01:57;23.63;;;10.80;;
72639;SDS011;60683;51.730;8.762;2022-10-03T08:07:39;25.55;;;10.75;;
72639;SDS011;60683;51.730;8.762;2022-10-03T08:10:22;29.88;;;10.30;;
72639;SDS011;60683;51.730;8.762;2022-10-03T08:13:04;30.50;;;11.10;;
72639;SDS011;60683;51.730;8.762;2022-10-03T08:15:49;25.65;;;10.18;;
72639;SDS011;60683;51.730;8.762;2022-10-03T08:18:40;20.63;;;8.90;;
72639;SDS011;60683;51.730;8.762;2022-10-03T08:21:35;20.42;;;9.27;;
72639;SDS011;60683;51.730;8.762;2022-10-03T08:24:19;19.70;;;9.88;;
72639;SDS011;60683;51.730;8.762;2022-10-03T08:27:06;24.88;;;11.18;;
72639;SDS011;60683;51.730;8.762;2022-10-03T08:32:57;22.98;;;9.20;;
72639;SDS011;60683;51.730;8.762;2022-10-03T08:35:35;20.45;;;10.02;;
72639;SDS011;60683;51.730;8.762;2022-10-03T08:41:25;24.17;;;10.38;;
72639;SDS011;60683;51.730;8.762;2022-10-03T08:53:01;31.67;;;11.93;;
72639;SDS011;60683;51.730;8.762;2022-10-03T08:55:52;28.08;;;10.75;;
72639;SDS011;60683;51.730;8.762;2022-10-03T09:01:27;18.05;;;7.97;;
72639;SDS011;60683;51.730;8.762;2022-10-03T09:07:10;22.88;;;8.75;;
72639;SDS011;60683;51.730;8.762;2022-10-03T09:19:00;22.65;;;8.15;;
72639;SDS011;60683;51.730;8.762;2022-10-03T09:21:49;16.13;;;6.55;;
72639;SDS011;60683;51.730;8.762;2022-10-03T09:27:29;18.92;;;8.48;;
72639;SDS011;60683;51.730;8.762;2022-10-03T09:30:11;16.00;;;8.00;;
72639;SDS011;60683;51.730;8.762;2022-10-03T09:36:10;20.05;;;7.50;;
72639;SDS011;60683;51.730;8.762;2022-10-03T09:38:49;18.58;;;7.25;;
72639;SDS011;60683;51.730;8.762;2022-10-03T09:41:57;20.95;;;6.53;;
72639;SDS011;60683;51.730;8.762;2022-10-03T09:44:56;17.88;;;6.20;;
72639;SDS011;60683;51.730;8.762;2022-10-03T09:47:56;14.38;;;5.75;;
72639;SDS011;60683;51.730;8.762;2022-10-03T10:00:10;17.83;;;6.68;;
72639;SDS011;60683;51.730;8.762;2022-10-03T10:03:13;14.15;;;6.05;;
72639;SDS011;60683;51.730;8.762;2022-10-03T10:06:11;12.52;;;5.70;;
72639;SDS011;60683;51.730;8.762;2022-10-03T10:09:06;14.43;;;6.13;;
72639;SDS011;60683;51.730;8.762;2022-10-03T10:18:06;14.30;;;5.40;;
72639;SDS011;60683;51.730;8.762;2022-10-03T10:24:20;15.23;;;6.85;;
72639;SDS011;60683;51.730;8.762;2022-10-03T10:27:06;12.85;;;5.90;;
72639;SDS011;60683;51.730;8.762;2022-10-03T10:32:53;11.68;;;4.63;;
72639;SDS011;60683;51.730;8.762;2022-10-03T10:38:52;15.40;;;5.78;;
72639;SDS011;60683;51.730;8.762;2022-10-03T10:41:56;8.90;;;5.20;;
72639;SDS011;60683;51.730;8.762;2022-10-03T11:02:22;11.02;;;4.97;;
72639;SDS011;60683;51.730;8.762;2022-10-03T11:05:30;11.48;;;5.05;;
72639;SDS011;60683;51.730;8.762;2022-10-03T11:11:19;12.75;;;4.95;;
72639;SDS011;60683;51.730;8.762;2022-10-03T11:14:08;13.30;;;5.32;;
72639;SDS011;60683;51.730;8.762;2022-10-03T11:17:06;9.88;;;4.90;;
72639;SDS011;60683;51.730;8.762;2022-10-03T11:25:59;10.52;;;4.93;;
72639;SDS011;60683;51.730;8.762;2022-10-03T11:28:51;10.93;;;3.53;;
72639;SDS011;60683;51.730;8.762;2022-10-03T11:32:02;10.05;;;4.53;;
72639;SDS011;60683;51.730;8.762;2022-10-03T11:34:45;11.60;;;3.97;;
72639;SDS011;60683;51.730;8.762;2022-10-03T11:37:35;10.45;;;3.80;;
72639;SDS011;60683;51.730;8.762;2022-10-03T11:46:10;7.05;;;1.88;;
72639;SDS011;60683;51.730;8.762;2022-10-03T11:48:48;10.23;;;2.45;;
72639;SDS011;60683;51.730;8.762;2022-10-03T11:51:19;7.28;;;2.30;;
72639;SDS011;60683;51.730;8.762;2022-10-03T11:53:56;8.18;;;2.70;;
72639;SDS011;60683;51.730;8.762;2022-10-03T11:56:31;7.97;;;2.70;;
72639;SDS011;60683;51.730;8.762;2022-10-03T11:59:07;5.05;;;1.80;;
72639;SDS011;60683;51.730;8.762;2022-10-03T12:01:51;6.38;;;2.47;;
72639;SDS011;60683;51.730;8.762;2022-10-03T12:04:25;7.53;;;2.55;;
72639;SDS011;60683;51.730;8.762;2022-10-03T12:06:57;7.22;;;2.08;;
72639;SDS011;60683;51.730;8.762;2022-10-03T12:09:53;10.25;;;1.98;;
72639;SDS011;60683;51.730;8.762;2022-10-03T12:12:26;9.07;;;2.20;;
72639;SDS011;60683;51.730;8.762;2022-10-03T12:14:59;6.50;;;1.38;;
72639;SDS011;60683;51.730;8.762;2022-10-03T12:17:34;6.28;;;1.38;;
72639;SDS011;60683;51.730;8.762;2022-10-03T12:20:04;5.88;;;1.58;;
72639;SDS011;60683;51.730;8.762;2022-10-03T12:22:43;7.30;;;1.52;;
72639;SDS011;60683;51.730;8.762;2022-10-03T12:25:19;11.45;;;1.60;;
72639;SDS011;60683;51.730;8.762;2022-10-03T12:27:55;5.70;;;1.95;;
72639;SDS011;60683;51.730;8.762;2022-10-03T12:30:29;7.50;;;1.95;;
72639;SDS011;60683;51.730;8.762;2022-10-03T12:33:05;7.00;;;1.73;;
72639;SDS011;60683;51.730;8.762;2022-10-03T12:35:41;5.18;;;1.10;;
72639;SDS011;60683;51.730;8.762;2022-10-03T12:38:18;4.65;;;1.38;;
72639;SDS011;60683;51.730;8.762;2022-10-03T12:40:53;4.57;;;1.42;;
72639;SDS011;60683;51.730;8.762;2022-10-03T12:43:31;4.68;;;1.15;;
72639;SDS011;60683;51.730;8.762;2022-10-03T12:46:05;4.57;;;1.25;;
72639;SDS011;60683;51.730;8.762;2022-10-03T12:48:39;6.90;;;1.70;;
72639;SDS011;60683;51.730;8.762;2022-10-03T12:51:18;6.25;;;1.20;;
72639;SDS011;60683;51.730;8.762;2022-10-03T12:53:52;5.75;;;1.20;;
72639;SDS011;60683;51.730;8.762;2022-10-03T12:56:29;5.13;;;1.30;;
72639;SDS011;60683;51.730;8.762;2022-10-03T12:59:05;9.10;;;1.45;;
72639;SDS011;60683;51.730;8.762;2022-10-03T13:01:50;5.65;;;1.10;;
72639;SDS011;60683;51.730;8.762;2022-10-03T13:04:28;4.55;;;1.08;;
72639;SDS011;60683;51.730;8.762;2022-10-03T13:07:06;6.55;;;1.17;;
72639;SDS011;60683;51.730;8.762;2022-10-03T13:09:52;5.07;;;1.20;;
72639;SDS011;60683;51.730;8.762;2022-10-03T13:12:27;4.85;;;1.10;;
72639;SDS011;60683;51.730;8.762;2022-10-03T13:18:11;6.40;;;1.52;;
72639;SDS011;60683;51.730;8.762;2022-10-03T13:20:48;5.40;;;1.05;;
72639;SDS011;60683;51.730;8.762;2022-10-03T13:23:22;5.20;;;1.00;;
72639;SDS011;60683;51.730;8.762;2022-10-03T13:25:57;4.93;;;0.88;;
72639;SDS011;60683;51.730;8.762;2022-10-03T13:28:34;4.57;;;1.02;;
72639;SDS011;60683;51.730;8.762;2022-10-03T13:31:13;3.60;;;0.85;;
72639;SDS011;60683;51.730;8.762;2022-10-03T13:33:45;7.78;;;1.08;;
72639;SDS011;60683;51.730;8.762;2022-10-03T13:36:16;3.35;;;0.82;;
72639;SDS011;60683;51.730;8.762;2022-10-03T13:38:50;5.82;;;1.10;;
72639;SDS011;60683;51.730;8.762;2022-10-03T13:41:39;3.72;;;0.73;;
72639;SDS011;60683;51.730;8.762;2022-10-03T13:44:15;3.85;;;0.68;;
72639;SDS011;60683;51.730;8.762;2022-10-03T13:46:45;4.00;;;0.65;;
72639;SDS011;60683;51.730;8.762;2022-10-03T13:49:21;3.42;;;0.68;;
72639;SDS011;60683;51.730;8.762;2022-10-03T13:51:54;3.55;;;0.98;;
72639;SDS011;60683;51.730;8.762;2022-10-03T13:54:36;2.33;;;0.60;;
72639;SDS011;60683;51.730;8.762;2022-10-03T13:57:20;5.03;;;1.00;;
72639;SDS011;60683;51.730;8.762;2022-10-03T13:59:53;5.72;;;0.85;;
72639;SDS011;60683;51.730;8.762;2022-10-03T14:02:36;4.72;;;0.88;;
72639;SDS011;60683;51.730;8.762;2022-10-03T14:05:16;4.43;;;0.65;;
72639;SDS011;60683;51.730;8.762;2022-10-03T14:08:06;4.43;;;0.93;;
72639;SDS011;60683;51.730;8.762;2022-10-03T14:13:31;7.13;;;1.13;;
72639;SDS011;60683;51.730;8.762;2022-10-03T14:16:09;4.63;;;0.80;;
72639;SDS011;60683;51.730;8.762;2022-10-03T14:18:44;3.72;;;0.98;;
72639;SDS011;60683;51.730;8.762;2022-10-03T14:21:22;4.45;;;0.85;;
72639;SDS011;60683;51.730;8.762;2022-10-03T14:24:13;4.60;;;0.93;;
72639;SDS011;60683;51.730;8.762;2022-10-03T14:26:46;3.83;;;0.98;;
72639;SDS011;60683;51.730;8.762;2022-10-03T14:29:20;5.10;;;1.20;;
72639;SDS011;60683;51.730;8.762;2022-10-03T14:31:53;5.78;;;0.95;;
72639;SDS011;60683;51.730;8.762;2022-10-03T14:34:30;5.47;;;1.00;;
72639;SDS011;60683;51.730;8.762;2022-10-03T14:37:06;4.90;;;0.63;;
72639;SDS011;60683;51.730;8.762;2022-10-03T14:39:43;4.90;;;1.00;;
72639;SDS011;60683;51.730;8.762;2022-10-03T14:42:27;4.82;;;0.90;;
72639;SDS011;60683;51.730;8.762;2022-10-03T14:44:59;5.78;;;1.10;;
72639;SDS011;60683;51.730;8.762;2022-10-03T14:47:31;3.42;;;0.57;;
72639;SDS011;60683;51.730;8.762;2022-10-03T14:50:00;3.15;;;0.68;;
72639;SDS011;60683;51.730;8.762;2022-10-03T14:52:29;5.45;;;1.05;;
72639;SDS011;60683;51.730;8.762;2022-10-03T14:55:06;4.38;;;0.82;;
72639;SDS011;60683;51.730;8.762;2022-10-03T14:57:35;3.47;;;0.88;;
72639;SDS011;60683;51.730;8.762;2022-10-03T15:00:06;5.43;;;0.80;;
72639;SDS011;60683;51.730;8.762;2022-10-03T15:02:43;4.78;;;0.80;;
72639;SDS011;60683;51.730;8.762;2022-10-03T15:05:13;2.47;;;0.77;;
72639;SDS011;60683;51.730;8.762;2022-10-03T15:07:42;4.30;;;0.90;;
72639;SDS011;60683;51.730;8.762;2022-10-03T15:10:13;5.57;;;1.10;;
72639;SDS011;60683;51.730;8.762;2022-10-03T15:12:43;2.92;;;0.80;;
72639;SDS011;60683;51.730;8.762;2022-10-03T15:15:14;5.05;;;0.88;;
72639;SDS011;60683;51.730;8.762;2022-10-03T15:17:45;2.08;;;0.60;;
72639;SDS011;60683;51.730;8.762;2022-10-03T15:20:15;6.32;;;1.10;;
72639;SDS011;60683;51.730;8.762;2022-10-03T15:22:46;4.82;;;0.90;;
72639;SDS011;60683;51.730;8.762;2022-10-03T15:25:17;4.75;;;1.38;;
72639;SDS011;60683;51.730;8.762;2022-10-03T15:27:48;3.10;;;0.60;;
72639;SDS011;60683;51.730;8.762;2022-10-03T15:30:18;4.15;;;1.00;;
72639;SDS011;60683;51.730;8.762;2022-10-03T15:35:15;2.83;;;0.77;;
72639;SDS011;60683;51.730;8.762;2022-10-03T15:37:44;5.10;;;0.90;;
72639;SDS011;60683;51.730;8.762;2022-10-03T15:40:19;2.47;;;0.75;;
72639;SDS011;60683;51.730;8.762;2022-10-03T15:42:49;3.95;;;0.88;;
72639;SDS011;60683;51.730;8.762;2022-10-03T15:45:22;4.85;;;1.08;;
72639;SDS011;60683;51.730;8.762;2022-10-03T15:47:54;5.50;;;1.13;;
72639;SDS011;60683;51.730;8.762;2022-10-03T15:50:24;6.30;;;1.17;;
72639;SDS011;60683;51.730;8.762;2022-10-03T15:52:54;4.75;;;1.00;;
72639;SDS011;60683;51.730;8.762;2022-10-03T15:55:25;5.50;;;1.23;;
72639;SDS011;60683;51.730;8.762;2022-10-03T15:57:57;6.88;;;1.00;;
72639;SDS011;60683;51.730;8.762;2022-10-03T16:00:26;4.38;;;0.93;;
72639;SDS011;60683;51.730;8.762;2022-10-03T16:03:04;6.70;;;1.15;;
72639;SDS011;60683;51.730;8.762;2022-10-03T16:05:36;5.70;;;1.50;;
72639;SDS011;60683;51.730;8.762;2022-10-03T16:08:11;3.72;;;1.10;;
72639;SDS011;60683;51.730;8.762;2022-10-03T16:10:44;7.85;;;2.17;;
72639;SDS011;60683;51.730;8.762;2022-10-03T16:13:20;2.53;;;0.88;;
72639;SDS011;60683;51.730;8.762;2022-10-03T16:15:56;7.53;;;1.30;;
72639;SDS011;60683;51.730;8.762;2022-10-03T16:18:40;4.50;;;1.13;;
72639;SDS011;60683;51.730;8.762;2022-10-03T16:21:12;5.78;;;1.25;;
72639;SDS011;60683;51.730;8.762;2022-10-03T16:23:41;9.30;;;1.35;;
72639;SDS011;60683;51.730;8.762;2022-10-03T16:26:12;8.15;;;2.15;;
72639;SDS011;60683;51.730;8.762;2022-10-03T16:28:45;4.80;;;1.20;;
72639;SDS011;60683;51.730;8.762;2022-10-03T16:31:17;4.03;;;1.27;;
72639;SDS011;60683;51.730;8.762;2022-10-03T16:33:48;8.20;;;1.45;;
72639;SDS011;60683;51.730;8.762;2022-10-03T16:36:17;9.32;;;1.60;;
72639;SDS011;60683;51.730;8.762;2022-10-03T16:38:50;4.38;;;1.52;;
72639;SDS011;60683;51.730;8.762;2022-10-03T16:41:20;4.85;;;1.35;;
72639;SDS011;60683;51.730;8.762;2022-10-03T16:43:56;4.22;;;1.20;;
72639;SDS011;60683;51.730;8.762;2022-10-03T16:46:25;6.32;;;1.88;;
72639;SDS011;60683;51.730;8.762;2022-10-03T16:48:54;6.18;;;1.70;;
72639;SDS011;60683;51.730;8.762;2022-10-03T16:51:43;6.35;;;2.13;;
72639;SDS011;60683;51.730;8.762;2022-10-03T16:54:12;5.30;;;1.70;;
72639;SDS011;60683;51.730;8.762;2022-10-03T16:56:42;5.30;;;1.45;;
72639;SDS011;60683;51.730;8.762;2022-10-03T16:59:12;7.47;;;1.45;;
72639;SDS011;60683;51.730;8.762;2022-10-03T17:01:43;6.40;;;1.65;;
72639;SDS011;60683;51.730;8.762;2022-10-03T17:04:14;5.15;;;1.75;;
72639;SDS011;60683;51.730;8.762;2022-10-03T17:06:46;5.80;;;1.85;;
72639;SDS011;60683;51.730;8.762;2022-10-03T17:09:16;5.22;;;1.58;;
72639;SDS011;60683;51.730;8.762;2022-10-03T17:11:49;6.80;;;1.65;;
72639;SDS011;60683;51.730;8.762;2022-10-03T17:14:18;7.13;;;1.80;;
72639;SDS011;60683;51.730;8.762;2022-10-03T17:16:47;5.43;;;1.90;;
72639;SDS011;60683;51.730;8.762;2022-10-03T17:19:20;6.45;;;2.08;;
72639;SDS011;60683;51.730;8.762;2022-10-03T17:21:56;7.10;;;2.20;;
72639;SDS011;60683;51.730;8.762;2022-10-03T17:24:32;5.53;;;1.98;;
72639;SDS011;60683;51.730;8.762;2022-10-03T17:27:08;8.15;;;2.15;;
72639;SDS011;60683;51.730;8.762;2022-10-03T17:29:43;6.68;;;2.05;;
72639;SDS011;60683;51.730;8.762;2022-10-03T17:32:13;6.80;;;2.17;;
72639;SDS011;60683;51.730;8.762;2022-10-03T17:34:48;8.52;;;3.17;;
72639;SDS011;60683;51.730;8.762;2022-10-03T17:37:34;10.77;;;3.13;;
72639;SDS011;60683;51.730;8.762;2022-10-03T17:40:13;6.40;;;2.22;;
72639;SDS011;60683;51.730;8.762;2022-10-03T17:42:52;5.75;;;2.47;;
72639;SDS011;60683;51.730;8.762;2022-10-03T17:45:24;7.57;;;2.70;;
72639;SDS011;60683;51.730;8.762;2022-10-03T17:48:03;7.88;;;2.92;;
72639;SDS011;60683;51.730;8.762;2022-10-03T17:50:35;8.80;;;2.72;;
72639;SDS011;60683;51.730;8.762;2022-10-03T17:53:10;8.40;;;2.78;;
72639;SDS011;60683;51.730;8.762;2022-10-03T17:55:41;5.97;;;2.55;;
72639;SDS011;60683;51.730;8.762;2022-10-03T17:58:12;7.68;;;3.40;;
72639;SDS011;60683;51.730;8.762;2022-10-03T18:00:53;9.48;;;3.55;;
72639;SDS011;60683;51.730;8.762;2022-10-03T18:03:25;8.88;;;3.30;;
72639;SDS011;60683;51.730;8.762;2022-10-03T18:05:56;10.15;;;3.90;;
72639;SDS011;60683;51.730;8.762;2022-10-03T18:08:26;10.65;;;4.00;;
72639;SDS011;60683;51.730;8.762;2022-10-03T18:10:56;8.70;;;4.55;;
72639;SDS011;60683;51.730;8.762;2022-10-03T18:13:30;11.38;;;4.53;;
72639;SDS011;60683;51.730;8.762;2022-10-03T18:16:12;10.75;;;6.10;;
72639;SDS011;60683;51.730;8.762;2022-10-03T18:19:02;12.65;;;5.90;;
72639;SDS011;60683;51.730;8.762;2022-10-03T18:21:42;10.98;;;5.20;;
72639;SDS011;60683;51.730;8.762;2022-10-03T18:24:23;11.00;;;5.90;;
72639;SDS011;60683;51.730;8.762;2022-10-03T18:30:18;10.60;;;5.03;;
72639;SDS011;60683;51.730;8.762;2022-10-03T18:32:47;15.88;;;5.75;;
72639;SDS011;60683;51.730;8.762;2022-10-03T18:35:16;9.98;;;5.47;;
72639;SDS011;60683;51.730;8.762;2022-10-03T18:37:53;10.55;;;5.20;;
72639;SDS011;60683;51.730;8.762;2022-10-03T18:40:26;8.68;;;4.68;;
72639;SDS011;60683;51.730;8.762;2022-10-03T18:42:55;12.85;;;5.03;;
72639;SDS011;60683;51.730;8.762;2022-10-03T18:45:25;12.68;;;5.72;;
72639;SDS011;60683;51.730;8.762;2022-10-03T18:47:59;10.95;;;5.93;;
72639;SDS011;60683;51.730;8.762;2022-10-03T18:50:35;8.60;;;5.05;;
72639;SDS011;60683;51.730;8.762;2022-10-03T18:53:13;13.30;;;5.60;;